Weather at Lio Matu Airport

Public forecast

Using degrees Celsius for public forecast. Weather courtesy of forecast.io.

Closest aviation weather report (METAR) to Lio Matu Airport

Closest report is Miri Airport, 104.1 nm (192.7 km) NW.

2024/05/26 17:00 (retrieved 35 minutes ago)

WBGR 261700Z 11004KT 8000 -RA SCT014 25/25 Q1010

Closest aviation forecast (TAF) to Lio Matu Airport

Closest forecast is Miri Airport, 104.1 nm (192.7 km) NW.

2024/05/26 12:00 (retrieved 6 hours ago)

TAF WBGR 261100Z 2612/2712 30005KT 9999 FEW016 TEMPO 2612/2615 6000 RA FEW015CB SCT016